sensor_id;sensor_type;location;lat;lon;timestamp;P1;durP1;ratioP1;P2;durP2;ratioP2
74523;SDS011;63074;44.696;10.358;2024-02-26T00:00:40;1.65;;;0.73;;
74523;SDS011;63074;44.696;10.358;2024-02-26T00:03:06;1.30;;;0.90;;
74523;SDS011;63074;44.696;10.358;2024-02-26T00:05:33;2.53;;;0.40;;
74523;SDS011;63074;44.696;10.358;2024-02-26T00:07:59;1.90;;;1.25;;
74523;SDS011;63074;44.696;10.358;2024-02-26T00:10:25;1.10;;;0.50;;
74523;SDS011;63074;44.696;10.358;2024-02-26T00:12:51;1.60;;;0.63;;
74523;SDS011;63074;44.696;10.358;2024-02-26T00:15:17;1.25;;;0.82;;
74523;SDS011;63074;44.696;10.358;2024-02-26T00:17:44;1.25;;;0.85;;
74523;SDS011;63074;44.696;10.358;2024-02-26T00:20:10;0.90;;;0.63;;
74523;SDS011;63074;44.696;10.358;2024-02-26T00:22:37;1.27;;;0.30;;
74523;SDS011;63074;44.696;10.358;2024-02-26T00:25:03;3.03;;;0.50;;
74523;SDS011;63074;44.696;10.358;2024-02-26T00:27:30;1.25;;;0.38;;
74523;SDS011;63074;44.696;10.358;2024-02-26T00:29:56;1.50;;;0.90;;
74523;SDS011;63074;44.696;10.358;2024-02-26T00:32:22;0.82;;;0.32;;
74523;SDS011;63074;44.696;10.358;2024-02-26T00:34:48;2.20;;;0.63;;
74523;SDS011;63074;44.696;10.358;2024-02-26T00:37:15;1.25;;;0.68;;
74523;SDS011;63074;44.696;10.358;2024-02-26T00:39:41;1.23;;;0.47;;
74523;SDS011;63074;44.696;10.358;2024-02-26T00:42:07;2.42;;;0.77;;
74523;SDS011;63074;44.696;10.358;2024-02-26T00:44:34;1.02;;;0.47;;
74523;SDS011;63074;44.696;10.358;2024-02-26T00:47:00;1.13;;;0.73;;
74523;SDS011;63074;44.696;10.358;2024-02-26T00:49:27;1.77;;;0.50;;
74523;SDS011;63074;44.696;10.358;2024-02-26T00:51:53;1.08;;;0.75;;
74523;SDS011;63074;44.696;10.358;2024-02-26T00:54:19;1.30;;;0.88;;
74523;SDS011;63074;44.696;10.358;2024-02-26T00:56:45;1.40;;;0.68;;
74523;SDS011;63074;44.696;10.358;2024-02-26T00:59:12;1.65;;;0.52;;
74523;SDS011;63074;44.696;10.358;2024-02-26T01:01:38;2.03;;;0.43;;
74523;SDS011;63074;44.696;10.358;2024-02-26T01:04:04;1.45;;;0.75;;
74523;SDS011;63074;44.696;10.358;2024-02-26T01:06:30;1.85;;;0.63;;
74523;SDS011;63074;44.696;10.358;2024-02-26T01:08:56;0.70;;;0.50;;
74523;SDS011;63074;44.696;10.358;2024-02-26T01:11:22;1.90;;;0.75;;
74523;SDS011;63074;44.696;10.358;2024-02-26T01:13:49;1.27;;;0.40;;
74523;SDS011;63074;44.696;10.358;2024-02-26T01:16:21;1.13;;;0.30;;
74523;SDS011;63074;44.696;10.358;2024-02-26T01:18:48;1.65;;;0.50;;
74523;SDS011;63074;44.696;10.358;2024-02-26T01:21:14;1.30;;;0.60;;
74523;SDS011;63074;44.696;10.358;2024-02-26T01:23:40;1.13;;;0.50;;
74523;SDS011;63074;44.696;10.358;2024-02-26T01:26:07;2.63;;;0.85;;
74523;SDS011;63074;44.696;10.358;2024-02-26T01:28:33;0.85;;;0.35;;
74523;SDS011;63074;44.696;10.358;2024-02-26T01:30:59;1.00;;;0.40;;
74523;SDS011;63074;44.696;10.358;2024-02-26T01:33:26;1.20;;;0.65;;
74523;SDS011;63074;44.696;10.358;2024-02-26T01:35:52;2.10;;;0.60;;
74523;SDS011;63074;44.696;10.358;2024-02-26T01:38:18;1.52;;;0.77;;
74523;SDS011;63074;44.696;10.358;2024-02-26T01:40:44;2.03;;;1.13;;
74523;SDS011;63074;44.696;10.358;2024-02-26T01:43:11;1.38;;;0.60;;
74523;SDS011;63074;44.696;10.358;2024-02-26T01:45:37;1.42;;;0.65;;
74523;SDS011;63074;44.696;10.358;2024-02-26T01:48:03;2.70;;;0.65;;
74523;SDS011;63074;44.696;10.358;2024-02-26T01:50:29;2.08;;;0.60;;
74523;SDS011;63074;44.696;10.358;2024-02-26T01:52:56;1.35;;;0.45;;
74523;SDS011;63074;44.696;10.358;2024-02-26T01:55:23;2.17;;;0.80;;
74523;SDS011;63074;44.696;10.358;2024-02-26T01:57:51;1.10;;;0.82;;
74523;SDS011;63074;44.696;10.358;2024-02-26T02:00:19;0.77;;;0.65;;
74523;SDS011;63074;44.696;10.358;2024-02-26T02:02:46;1.20;;;0.65;;
74523;SDS011;63074;44.696;10.358;2024-02-26T02:05:14;1.45;;;0.60;;
74523;SDS011;63074;44.696;10.358;2024-02-26T02:07:42;1.27;;;0.65;;
74523;SDS011;63074;44.696;10.358;2024-02-26T02:10:09;2.17;;;0.90;;
74523;SDS011;63074;44.696;10.358;2024-02-26T02:12:36;1.52;;;0.98;;
74523;SDS011;63074;44.696;10.358;2024-02-26T02:15:05;1.60;;;0.88;;
74523;SDS011;63074;44.696;10.358;2024-02-26T02:17:31;1.70;;;0.75;;
74523;SDS011;63074;44.696;10.358;2024-02-26T02:19:58;1.23;;;0.70;;
74523;SDS011;63074;44.696;10.358;2024-02-26T02:22:24;0.60;;;0.55;;
74523;SDS011;63074;44.696;10.358;2024-02-26T02:24:52;1.73;;;0.55;;
74523;SDS011;63074;44.696;10.358;2024-02-26T02:27:19;0.90;;;0.30;;
74523;SDS011;63074;44.696;10.358;2024-02-26T02:29:46;1.52;;;0.75;;
74523;SDS011;63074;44.696;10.358;2024-02-26T02:32:13;1.02;;;0.60;;
74523;SDS011;63074;44.696;10.358;2024-02-26T02:34:41;1.60;;;0.65;;
74523;SDS011;63074;44.696;10.358;2024-02-26T02:37:07;1.50;;;1.20;;
74523;SDS011;63074;44.696;10.358;2024-02-26T02:39:33;1.85;;;0.77;;
74523;SDS011;63074;44.696;10.358;2024-02-26T02:41:59;1.23;;;0.55;;
74523;SDS011;63074;44.696;10.358;2024-02-26T02:44:25;1.35;;;1.00;;
74523;SDS011;63074;44.696;10.358;2024-02-26T02:46:52;1.70;;;0.90;;
74523;SDS011;63074;44.696;10.358;2024-02-26T02:49:18;1.83;;;0.70;;
74523;SDS011;63074;44.696;10.358;2024-02-26T02:51:44;1.70;;;0.50;;
74523;SDS011;63074;44.696;10.358;2024-02-26T02:54:10;1.08;;;0.40;;
74523;SDS011;63074;44.696;10.358;2024-02-26T02:56:36;1.48;;;0.65;;
74523;SDS011;63074;44.696;10.358;2024-02-26T02:59:03;1.90;;;0.60;;
74523;SDS011;63074;44.696;10.358;2024-02-26T03:01:29;1.50;;;1.10;;
74523;SDS011;63074;44.696;10.358;2024-02-26T03:03:55;1.55;;;0.93;;
74523;SDS011;63074;44.696;10.358;2024-02-26T03:06:21;1.95;;;0.80;;
74523;SDS011;63074;44.696;10.358;2024-02-26T03:08:48;2.70;;;1.08;;
74523;SDS011;63074;44.696;10.358;2024-02-26T03:11:14;1.65;;;0.85;;
74523;SDS011;63074;44.696;10.358;2024-02-26T03:13:41;3.83;;;0.80;;
74523;SDS011;63074;44.696;10.358;2024-02-26T03:16:07;1.20;;;0.77;;
74523;SDS011;63074;44.696;10.358;2024-02-26T03:18:33;1.75;;;0.95;;
74523;SDS011;63074;44.696;10.358;2024-02-26T03:20:59;1.33;;;0.57;;
74523;SDS011;63074;44.696;10.358;2024-02-26T03:23:25;2.90;;;1.15;;
74523;SDS011;63074;44.696;10.358;2024-02-26T03:25:52;3.35;;;1.27;;
74523;SDS011;63074;44.696;10.358;2024-02-26T03:28:18;1.15;;;1.00;;
74523;SDS011;63074;44.696;10.358;2024-02-26T03:30:44;2.17;;;1.05;;
74523;SDS011;63074;44.696;10.358;2024-02-26T03:33:10;1.40;;;0.85;;
74523;SDS011;63074;44.696;10.358;2024-02-26T03:35:36;2.40;;;1.05;;
74523;SDS011;63074;44.696;10.358;2024-02-26T03:38:03;1.25;;;0.75;;
74523;SDS011;63074;44.696;10.358;2024-02-26T03:40:29;1.50;;;0.60;;
74523;SDS011;63074;44.696;10.358;2024-02-26T03:42:55;2.33;;;1.15;;
74523;SDS011;63074;44.696;10.358;2024-02-26T03:45:22;1.55;;;0.80;;
74523;SDS011;63074;44.696;10.358;2024-02-26T03:47:48;1.52;;;0.75;;
74523;SDS011;63074;44.696;10.358;2024-02-26T03:50:14;2.33;;;0.93;;
74523;SDS011;63074;44.696;10.358;2024-02-26T03:52:41;1.88;;;0.82;;
74523;SDS011;63074;44.696;10.358;2024-02-26T03:55:07;1.92;;;0.30;;
74523;SDS011;63074;44.696;10.358;2024-02-26T03:57:35;1.90;;;0.60;;
74523;SDS011;63074;44.696;10.358;2024-02-26T04:00:02;1.83;;;0.32;;
74523;SDS011;63074;44.696;10.358;2024-02-26T04:02:28;1.50;;;0.80;;
74523;SDS011;63074;44.696;10.358;2024-02-26T04:04:54;1.13;;;0.47;;
74523;SDS011;63074;44.696;10.358;2024-02-26T04:07:21;1.58;;;0.40;;
74523;SDS011;63074;44.696;10.358;2024-02-26T04:09:47;3.78;;;0.60;;
74523;SDS011;63074;44.696;10.358;2024-02-26T04:12:13;1.67;;;0.80;;
74523;SDS011;63074;44.696;10.358;2024-02-26T04:14:39;1.10;;;0.68;;
74523;SDS011;63074;44.696;10.358;2024-02-26T04:17:05;2.13;;;1.05;;
74523;SDS011;63074;44.696;10.358;2024-02-26T04:19:31;1.10;;;0.82;;
74523;SDS011;63074;44.696;10.358;2024-02-26T04:21:58;1.00;;;0.60;;
74523;SDS011;63074;44.696;10.358;2024-02-26T04:24:25;1.63;;;0.52;;
74523;SDS011;63074;44.696;10.358;2024-02-26T04:26:51;1.25;;;0.77;;
74523;SDS011;63074;44.696;10.358;2024-02-26T04:29:17;1.10;;;0.50;;
74523;SDS011;63074;44.696;10.358;2024-02-26T04:31:43;5.18;;;0.93;;
74523;SDS011;63074;44.696;10.358;2024-02-26T04:34:11;1.85;;;1.05;;
74523;SDS011;63074;44.696;10.358;2024-02-26T04:36:37;1.95;;;0.80;;
74523;SDS011;63074;44.696;10.358;2024-02-26T04:39:03;3.28;;;0.95;;
74523;SDS011;63074;44.696;10.358;2024-02-26T04:41:30;1.38;;;0.80;;
74523;SDS011;63074;44.696;10.358;2024-02-26T04:43:56;3.33;;;1.40;;
74523;SDS011;63074;44.696;10.358;2024-02-26T04:46:22;1.70;;;0.93;;
74523;SDS011;63074;44.696;10.358;2024-02-26T04:48:48;4.93;;;2.38;;
74523;SDS011;63074;44.696;10.358;2024-02-26T04:51:14;3.83;;;1.85;;
74523;SDS011;63074;44.696;10.358;2024-02-26T05:01:29;3.40;;;2.53;;
74523;SDS011;63074;44.696;10.358;2024-02-26T05:03:55;3.17;;;2.10;;
74523;SDS011;63074;44.696;10.358;2024-02-26T05:06:21;4.18;;;2.78;;
74523;SDS011;63074;44.696;10.358;2024-02-26T05:08:48;4.32;;;2.50;;
74523;SDS011;63074;44.696;10.358;2024-02-26T05:11:14;3.70;;;2.15;;
74523;SDS011;63074;44.696;10.358;2024-02-26T05:13:40;3.35;;;2.08;;
74523;SDS011;63074;44.696;10.358;2024-02-26T05:16:07;5.72;;;4.05;;
74523;SDS011;63074;44.696;10.358;2024-02-26T05:18:33;4.70;;;3.28;;
74523;SDS011;63074;44.696;10.358;2024-02-26T05:21:00;4.28;;;2.30;;
74523;SDS011;63074;44.696;10.358;2024-02-26T05:23:26;3.58;;;2.47;;
74523;SDS011;63074;44.696;10.358;2024-02-26T05:25:52;4.78;;;2.25;;
74523;SDS011;63074;44.696;10.358;2024-02-26T05:28:18;5.53;;;2.53;;
74523;SDS011;63074;44.696;10.358;2024-02-26T05:30:45;3.58;;;2.05;;
74523;SDS011;63074;44.696;10.358;2024-02-26T05:33:12;3.17;;;2.60;;
74523;SDS011;63074;44.696;10.358;2024-02-26T05:35:38;4.15;;;3.50;;
74523;SDS011;63074;44.696;10.358;2024-02-26T05:38:05;2.88;;;1.92;;
74523;SDS011;63074;44.696;10.358;2024-02-26T05:40:31;2.85;;;1.10;;
74523;SDS011;63074;44.696;10.358;2024-02-26T05:42:57;2.38;;;1.00;;
74523;SDS011;63074;44.696;10.358;2024-02-26T05:45:24;2.55;;;1.33;;
74523;SDS011;63074;44.696;10.358;2024-02-26T05:47:50;2.33;;;1.50;;
74523;SDS011;63074;44.696;10.358;2024-02-26T05:50:16;4.78;;;2.22;;
74523;SDS011;63074;44.696;10.358;2024-02-26T05:52:42;3.75;;;2.60;;
74523;SDS011;63074;44.696;10.358;2024-02-26T05:55:08;4.47;;;2.45;;
74523;SDS011;63074;44.696;10.358;2024-02-26T05:57:35;5.20;;;2.88;;
74523;SDS011;63074;44.696;10.358;2024-02-26T06:00:02;5.30;;;3.00;;
74523;SDS011;63074;44.696;10.358;2024-02-26T06:02:31;5.75;;;2.85;;
74523;SDS011;63074;44.696;10.358;2024-02-26T06:04:58;8.38;;;4.13;;
74523;SDS011;63074;44.696;10.358;2024-02-26T06:07:24;4.70;;;3.45;;
74523;SDS011;63074;44.696;10.358;2024-02-26T06:09:51;6.50;;;3.55;;
74523;SDS011;63074;44.696;10.358;2024-02-26T06:12:17;5.38;;;2.80;;
74523;SDS011;63074;44.696;10.358;2024-02-26T06:14:43;6.65;;;3.75;;
74523;SDS011;63074;44.696;10.358;2024-02-26T06:17:09;7.15;;;3.65;;
74523;SDS011;63074;44.696;10.358;2024-02-26T06:22:57;7.53;;;3.95;;
74523;SDS011;63074;44.696;10.358;2024-02-26T06:25:24;8.35;;;5.47;;
74523;SDS011;63074;44.696;10.358;2024-02-26T06:27:50;9.82;;;5.28;;
74523;SDS011;63074;44.696;10.358;2024-02-26T06:30:17;10.77;;;6.75;;
74523;SDS011;63074;44.696;10.358;2024-02-26T06:32:43;12.38;;;7.57;;
74523;SDS011;63074;44.696;10.358;2024-02-26T06:35:09;13.10;;;8.15;;
74523;SDS011;63074;44.696;10.358;2024-02-26T06:37:36;17.40;;;9.05;;
74523;SDS011;63074;44.696;10.358;2024-02-26T06:40:03;16.02;;;9.45;;
74523;SDS011;63074;44.696;10.358;2024-02-26T06:42:31;14.48;;;9.57;;
74523;SDS011;63074;44.696;10.358;2024-02-26T06:44:57;14.15;;;9.73;;
74523;SDS011;63074;44.696;10.358;2024-02-26T06:47:24;15.70;;;10.25;;
74523;SDS011;63074;44.696;10.358;2024-02-26T06:49:51;14.88;;;10.00;;
74523;SDS011;63074;44.696;10.358;2024-02-26T06:52:17;16.20;;;9.15;;
74523;SDS011;63074;44.696;10.358;2024-02-26T06:54:43;17.48;;;11.50;;
74523;SDS011;63074;44.696;10.358;2024-02-26T06:57:09;17.10;;;11.27;;
74523;SDS011;63074;44.696;10.358;2024-02-26T06:59:36;17.13;;;11.50;;
74523;SDS011;63074;44.696;10.358;2024-02-26T07:02:02;19.38;;;12.50;;
74523;SDS011;63074;44.696;10.358;2024-02-26T07:04:28;16.95;;;11.48;;
74523;SDS011;63074;44.696;10.358;2024-02-26T07:06:57;15.55;;;10.90;;
74523;SDS011;63074;44.696;10.358;2024-02-26T07:09:23;16.75;;;11.57;;
74523;SDS011;63074;44.696;10.358;2024-02-26T07:11:50;19.02;;;12.27;;
74523;SDS011;63074;44.696;10.358;2024-02-26T07:14:16;18.98;;;11.98;;
74523;SDS011;63074;44.696;10.358;2024-02-26T07:16:42;20.27;;;12.18;;
74523;SDS011;63074;44.696;10.358;2024-02-26T07:19:08;20.52;;;12.85;;
74523;SDS011;63074;44.696;10.358;2024-02-26T07:21:35;23.08;;;12.57;;
74523;SDS011;63074;44.696;10.358;2024-02-26T07:24:01;19.30;;;13.00;;
74523;SDS011;63074;44.696;10.358;2024-02-26T07:26:27;22.65;;;13.38;;
74523;SDS011;63074;44.696;10.358;2024-02-26T07:28:55;19.48;;;12.98;;
74523;SDS011;63074;44.696;10.358;2024-02-26T07:31:22;18.15;;;12.10;;
74523;SDS011;63074;44.696;10.358;2024-02-26T07:33:48;21.65;;;13.13;;
74523;SDS011;63074;44.696;10.358;2024-02-26T07:36:14;20.05;;;13.52;;
74523;SDS011;63074;44.696;10.358;2024-02-26T07:38:40;20.77;;;13.57;;
74523;SDS011;63074;44.696;10.358;2024-02-26T07:41:06;21.30;;;13.88;;
74523;SDS011;63074;44.696;10.358;2024-02-26T07:43:33;21.83;;;13.75;;
74523;SDS011;63074;44.696;10.358;2024-02-26T07:45:59;23.30;;;13.35;;
74523;SDS011;63074;44.696;10.358;2024-02-26T07:48:26;22.30;;;13.80;;
74523;SDS011;63074;44.696;10.358;2024-02-26T07:50:52;24.88;;;15.07;;
74523;SDS011;63074;44.696;10.358;2024-02-26T07:53:18;21.05;;;13.27;;
74523;SDS011;63074;44.696;10.358;2024-02-26T07:55:44;22.45;;;12.93;;
74523;SDS011;63074;44.696;10.358;2024-02-26T07:58:10;18.67;;;12.75;;
74523;SDS011;63074;44.696;10.358;2024-02-26T08:00:36;18.52;;;12.50;;
74523;SDS011;63074;44.696;10.358;2024-02-26T08:03:03;17.83;;;13.52;;
74523;SDS011;63074;44.696;10.358;2024-02-26T08:05:29;19.63;;;13.05;;
74523;SDS011;63074;44.696;10.358;2024-02-26T08:07:55;19.98;;;13.30;;
74523;SDS011;63074;44.696;10.358;2024-02-26T08:10:21;20.88;;;13.77;;
74523;SDS011;63074;44.696;10.358;2024-02-26T08:12:47;23.77;;;14.43;;
74523;SDS011;63074;44.696;10.358;2024-02-26T08:15:14;26.42;;;15.43;;
74523;SDS011;63074;44.696;10.358;2024-02-26T08:17:40;23.75;;;14.10;;
74523;SDS011;63074;44.696;10.358;2024-02-26T08:20:06;22.77;;;14.27;;
74523;SDS011;63074;44.696;10.358;2024-02-26T08:22:33;22.75;;;14.95;;
74523;SDS011;63074;44.696;10.358;2024-02-26T08:24:59;22.50;;;13.73;;
74523;SDS011;63074;44.696;10.358;2024-02-26T08:27:30;25.20;;;15.38;;
74523;SDS011;63074;44.696;10.358;2024-02-26T08:29:56;21.33;;;12.77;;
74523;SDS011;63074;44.696;10.358;2024-02-26T08:32:22;20.63;;;12.48;;
74523;SDS011;63074;44.696;10.358;2024-02-26T08:34:49;18.25;;;12.07;;
74523;SDS011;63074;44.696;10.358;2024-02-26T08:37:15;21.60;;;14.55;;
74523;SDS011;63074;44.696;10.358;2024-02-26T08:39:41;20.30;;;13.88;;
74523;SDS011;63074;44.696;10.358;2024-02-26T08:42:07;19.23;;;13.30;;
74523;SDS011;63074;44.696;10.358;2024-02-26T08:44:33;20.15;;;12.65;;
74523;SDS011;63074;44.696;10.358;2024-02-26T08:47:00;18.10;;;12.95;;
74523;SDS011;63074;44.696;10.358;2024-02-26T08:49:26;19.85;;;13.45;;
74523;SDS011;63074;44.696;10.358;2024-02-26T08:51:52;17.77;;;12.60;;
74523;SDS011;63074;44.696;10.358;2024-02-26T08:54:18;21.33;;;12.63;;
74523;SDS011;63074;44.696;10.358;2024-02-26T08:56:44;21.90;;;12.85;;
74523;SDS011;63074;44.696;10.358;2024-02-26T08:59:11;18.33;;;12.10;;
74523;SDS011;63074;44.696;10.358;2024-02-26T09:01:37;19.30;;;13.02;;
74523;SDS011;63074;44.696;10.358;2024-02-26T09:04:03;18.75;;;12.82;;
74523;SDS011;63074;44.696;10.358;2024-02-26T09:06:29;17.40;;;12.48;;
74523;SDS011;63074;44.696;10.358;2024-02-26T09:08:55;16.02;;;11.65;;
74523;SDS011;63074;44.696;10.358;2024-02-26T09:11:21;18.17;;;13.23;;
74523;SDS011;63074;44.696;10.358;2024-02-26T09:13:48;17.52;;;12.25;;
74523;SDS011;63074;44.696;10.358;2024-02-26T09:16:14;18.52;;;11.77;;
74523;SDS011;63074;44.696;10.358;2024-02-26T09:18:40;19.27;;;13.13;;
74523;SDS011;63074;44.696;10.358;2024-02-26T09:21:06;19.55;;;12.43;;
74523;SDS011;63074;44.696;10.358;2024-02-26T09:23:32;18.92;;;11.68;;
74523;SDS011;63074;44.696;10.358;2024-02-26T09:26:00;18.33;;;12.02;;
74523;SDS011;63074;44.696;10.358;2024-02-26T09:28:26;18.20;;;11.45;;
74523;SDS011;63074;44.696;10.358;2024-02-26T09:30:52;16.23;;;10.82;;
74523;SDS011;63074;44.696;10.358;2024-02-26T09:33:19;21.60;;;11.90;;
74523;SDS011;63074;44.696;10.358;2024-02-26T09:35:45;15.32;;;10.65;;
74523;SDS011;63074;44.696;10.358;2024-02-26T09:38:11;16.00;;;10.77;;
74523;SDS011;63074;44.696;10.358;2024-02-26T09:40:39;15.55;;;10.23;;
74523;SDS011;63074;44.696;10.358;2024-02-26T09:43:05;17.77;;;11.20;;
74523;SDS011;63074;44.696;10.358;2024-02-26T09:45:35;16.00;;;10.73;;
74523;SDS011;63074;44.696;10.358;2024-02-26T09:48:01;15.40;;;10.05;;
74523;SDS011;63074;44.696;10.358;2024-02-26T09:50:29;14.07;;;9.68;;
74523;SDS011;63074;44.696;10.358;2024-02-26T09:52:55;15.32;;;9.50;;
74523;SDS011;63074;44.696;10.358;2024-02-26T09:55:24;14.65;;;9.10;;
74523;SDS011;63074;44.696;10.358;2024-02-26T09:57:51;14.50;;;9.75;;
74523;SDS011;63074;44.696;10.358;2024-02-26T10:00:18;14.88;;;10.27;;
74523;SDS011;63074;44.696;10.358;2024-02-26T10:02:46;14.48;;;10.00;;
74523;SDS011;63074;44.696;10.358;2024-02-26T10:05:14;15.85;;;9.30;;
74523;SDS011;63074;44.696;10.358;2024-02-26T10:07:44;12.00;;;8.88;;
74523;SDS011;63074;44.696;10.358;2024-02-26T10:10:11;12.52;;;8.25;;
74523;SDS011;63074;44.696;10.358;2024-02-26T10:12:42;14.43;;;9.15;;
74523;SDS011;63074;44.696;10.358;2024-02-26T10:15:08;12.40;;;9.07;;
74523;SDS011;63074;44.696;10.358;2024-02-26T10:17:34;14.75;;;10.00;;
74523;SDS011;63074;44.696;10.358;2024-02-26T10:20:11;12.70;;;7.95;;
74523;SDS011;63074;44.696;10.358;2024-02-26T10:22:42;12.20;;;7.03;;
74523;SDS011;63074;44.696;10.358;2024-02-26T10:25:09;12.38;;;7.47;;
74523;SDS011;63074;44.696;10.358;2024-02-26T10:27:35;11.75;;;7.95;;
74523;SDS011;63074;44.696;10.358;2024-02-26T10:30:02;11.95;;;8.45;;
74523;SDS011;63074;44.696;10.358;2024-02-26T10:32:30;13.50;;;7.88;;
74523;SDS011;63074;44.696;10.358;2024-02-26T10:34:57;10.65;;;7.75;;
74523;SDS011;63074;44.696;10.358;2024-02-26T10:37:23;9.43;;;6.43;;
74523;SDS011;63074;44.696;10.358;2024-02-26T10:39:50;8.93;;;5.95;;
74523;SDS011;63074;44.696;10.358;2024-02-26T10:42:16;9.68;;;5.80;;
74523;SDS011;63074;44.696;10.358;2024-02-26T10:44:44;6.93;;;5.47;;
74523;SDS011;63074;44.696;10.358;2024-02-26T10:47:13;9.50;;;5.47;;
74523;SDS011;63074;44.696;10.358;2024-02-26T10:49:44;11.80;;;6.57;;
74523;SDS011;63074;44.696;10.358;2024-02-26T10:52:13;9.98;;;5.68;;
74523;SDS011;63074;44.696;10.358;2024-02-26T10:54:41;11.32;;;6.82;;
74523;SDS011;63074;44.696;10.358;2024-02-26T10:57:12;8.65;;;6.07;;
74523;SDS011;63074;44.696;10.358;2024-02-26T10:59:41;8.55;;;5.35;;
74523;SDS011;63074;44.696;10.358;2024-02-26T11:02:09;11.98;;;5.78;;
74523;SDS011;63074;44.696;10.358;2024-02-26T11:04:38;10.20;;;6.07;;
74523;SDS011;63074;44.696;10.358;2024-02-26T11:07:04;8.40;;;6.05;;
74523;SDS011;63074;44.696;10.358;2024-02-26T11:09:33;10.32;;;6.38;;
74523;SDS011;63074;44.696;10.358;2024-02-26T11:12:00;10.88;;;6.53;;
74523;SDS011;63074;44.696;10.358;2024-02-26T11:14:27;10.60;;;7.07;;
74523;SDS011;63074;44.696;10.358;2024-02-26T11:16:56;13.23;;;7.07;;
74523;SDS011;63074;44.696;10.358;2024-02-26T11:19:23;11.48;;;7.05;;
74523;SDS011;63074;44.696;10.358;2024-02-26T11:21:51;10.68;;;6.55;;
74523;SDS011;63074;44.696;10.358;2024-02-26T11:24:17;12.20;;;7.97;;
74523;SDS011;63074;44.696;10.358;2024-02-26T11:26:50;12.00;;;6.85;;
74523;SDS011;63074;44.696;10.358;2024-02-26T11:29:24;13.20;;;7.93;;
74523;SDS011;63074;44.696;10.358;2024-02-26T11:31:55;10.88;;;7.88;;
74523;SDS011;63074;44.696;10.358;2024-02-26T11:34:21;11.95;;;8.18;;
74523;SDS011;63074;44.696;10.358;2024-02-26T11:36:48;12.45;;;7.90;;
74523;SDS011;63074;44.696;10.358;2024-02-26T11:39:14;11.00;;;7.28;;
74523;SDS011;63074;44.696;10.358;2024-02-26T11:41:42;12.95;;;8.25;;
74523;SDS011;63074;44.696;10.358;2024-02-26T11:44:08;11.20;;;7.78;;
74523;SDS011;63074;44.696;10.358;2024-02-26T11:46:41;10.75;;;7.95;;
74523;SDS011;63074;44.696;10.358;2024-02-26T11:51:55;13.18;;;7.75;;
74523;SDS011;63074;44.696;10.358;2024-02-26T12:02:44;9.45;;;6.20;;
74523;SDS011;63074;44.696;10.358;2024-02-26T12:05:12;9.48;;;6.55;;
74523;SDS011;63074;44.696;10.358;2024-02-26T12:07:43;9.20;;;6.22;;
74523;SDS011;63074;44.696;10.358;2024-02-26T12:10:22;10.48;;;6.93;;
74523;SDS011;63074;44.696;10.358;2024-02-26T12:15:31;9.13;;;6.63;;
74523;SDS011;63074;44.696;10.358;2024-02-26T12:18:05;11.88;;;7.68;;
74523;SDS011;63074;44.696;10.358;2024-02-26T12:20:38;7.82;;;6.05;;
74523;SDS011;63074;44.696;10.358;2024-02-26T12:23:04;9.82;;;6.07;;
74523;SDS011;63074;44.696;10.358;2024-02-26T12:25:31;8.80;;;5.93;;
74523;SDS011;63074;44.696;10.358;2024-02-26T12:27:58;9.77;;;5.97;;
74523;SDS011;63074;44.696;10.358;2024-02-26T12:30:25;9.50;;;5.95;;
74523;SDS011;63074;44.696;10.358;2024-02-26T12:32:52;8.23;;;6.15;;
74523;SDS011;63074;44.696;10.358;2024-02-26T12:35:22;10.18;;;6.55;;
74523;SDS011;63074;44.696;10.358;2024-02-26T12:37:49;12.30;;;5.80;;
74523;SDS011;63074;44.696;10.358;2024-02-26T12:40:16;4.78;;;3.85;;
74523;SDS011;63074;44.696;10.358;2024-02-26T12:42:43;6.20;;;3.30;;
74523;SDS011;63074;44.696;10.358;2024-02-26T12:45:10;4.10;;;2.72;;
74523;SDS011;63074;44.696;10.358;2024-02-26T12:50:04;4.70;;;2.75;;
74523;SDS011;63074;44.696;10.358;2024-02-26T12:52:32;5.45;;;2.90;;
74523;SDS011;63074;44.696;10.358;2024-02-26T12:55:00;4.13;;;2.55;;
74523;SDS011;63074;44.696;10.358;2024-02-26T12:57:29;4.38;;;2.70;;
74523;SDS011;63074;44.696;10.358;2024-02-26T12:59:57;4.15;;;2.63;;
74523;SDS011;63074;44.696;10.358;2024-02-26T13:02:24;5.63;;;2.40;;
74523;SDS011;63074;44.696;10.358;2024-02-26T13:04:52;4.00;;;2.75;;
74523;SDS011;63074;44.696;10.358;2024-02-26T13:07:20;4.30;;;2.33;;
74523;SDS011;63074;44.696;10.358;2024-02-26T13:09:46;4.95;;;2.35;;
74523;SDS011;63074;44.696;10.358;2024-02-26T13:12:13;2.88;;;1.92;;
74523;SDS011;63074;44.696;10.358;2024-02-26T13:14:39;3.35;;;2.15;;
74523;SDS011;63074;44.696;10.358;2024-02-26T13:17:06;3.45;;;1.60;;
74523;SDS011;63074;44.696;10.358;2024-02-26T13:19:32;3.47;;;2.03;;
74523;SDS011;63074;44.696;10.358;2024-02-26T13:22:05;2.95;;;1.85;;
74523;SDS011;63074;44.696;10.358;2024-02-26T13:24:32;3.35;;;1.83;;
74523;SDS011;63074;44.696;10.358;2024-02-26T13:26:59;5.38;;;2.05;;
74523;SDS011;63074;44.696;10.358;2024-02-26T13:29:26;4.93;;;2.33;;
74523;SDS011;63074;44.696;10.358;2024-02-26T13:31:55;4.43;;;2.38;;
74523;SDS011;63074;44.696;10.358;2024-02-26T13:34:27;3.75;;;1.80;;
74523;SDS011;63074;44.696;10.358;2024-02-26T13:36:56;3.95;;;2.78;;
74523;SDS011;63074;44.696;10.358;2024-02-26T13:39:23;4.32;;;2.78;;
74523;SDS011;63074;44.696;10.358;2024-02-26T13:41:50;2.47;;;1.63;;
74523;SDS011;63074;44.696;10.358;2024-02-26T13:44:17;3.60;;;2.00;;
74523;SDS011;63074;44.696;10.358;2024-02-26T13:46:44;4.18;;;2.55;;
74523;SDS011;63074;44.696;10.358;2024-02-26T13:49:10;2.92;;;1.88;;
74523;SDS011;63074;44.696;10.358;2024-02-26T13:51:37;3.88;;;3.00;;
74523;SDS011;63074;44.696;10.358;2024-02-26T13:54:04;6.03;;;3.08;;
74523;SDS011;63074;44.696;10.358;2024-02-26T13:56:30;5.55;;;2.45;;
74523;SDS011;63074;44.696;10.358;2024-02-26T13:58:57;5.10;;;3.15;;
74523;SDS011;63074;44.696;10.358;2024-02-26T14:01:24;5.30;;;3.17;;
74523;SDS011;63074;44.696;10.358;2024-02-26T14:03:50;5.80;;;3.42;;
74523;SDS011;63074;44.696;10.358;2024-02-26T14:06:20;5.25;;;2.78;;
74523;SDS011;63074;44.696;10.358;2024-02-26T14:08:46;6.90;;;3.78;;
74523;SDS011;63074;44.696;10.358;2024-02-26T14:11:12;5.78;;;3.00;;
74523;SDS011;63074;44.696;10.358;2024-02-26T14:13:39;6.30;;;3.55;;
74523;SDS011;63074;44.696;10.358;2024-02-26T14:16:05;7.60;;;4.18;;
74523;SDS011;63074;44.696;10.358;2024-02-26T14:18:31;6.18;;;3.78;;
74523;SDS011;63074;44.696;10.358;2024-02-26T14:20:57;7.07;;;4.72;;
74523;SDS011;63074;44.696;10.358;2024-02-26T14:23:24;7.00;;;4.57;;
74523;SDS011;63074;44.696;10.358;2024-02-26T14:25:50;7.38;;;4.57;;
74523;SDS011;63074;44.696;10.358;2024-02-26T14:28:16;8.27;;;4.82;;
74523;SDS011;63074;44.696;10.358;2024-02-26T14:30:42;8.27;;;4.15;;
74523;SDS011;63074;44.696;10.358;2024-02-26T14:33:09;5.60;;;3.30;;
74523;SDS011;63074;44.696;10.358;2024-02-26T14:35:35;4.65;;;2.42;;
74523;SDS011;63074;44.696;10.358;2024-02-26T14:38:01;4.90;;;2.92;;
74523;SDS011;63074;44.696;10.358;2024-02-26T14:40:27;3.60;;;2.67;;
74523;SDS011;63074;44.696;10.358;2024-02-26T14:42:55;4.70;;;2.72;;
74523;SDS011;63074;44.696;10.358;2024-02-26T14:45:22;3.53;;;1.88;;
74523;SDS011;63074;44.696;10.358;2024-02-26T14:47:48;4.45;;;2.25;;
74523;SDS011;63074;44.696;10.358;2024-02-26T14:50:15;2.83;;;2.00;;